Time;durP1;ratioP1;P1;durP2;ratioP2;P2;SDS_P1;SDS_P2;PMS_P1;PMS_P2;Temp;Humidity;BMP_temperature;BMP_pressure;BME280_temperature;BME280_humidity;BME280_pressure;Samples;Min_cycle;Max_cycle;Signal;HPM_P1;HPM_P2
2023/08/05 00:01:04;;;;;;;12.30;3.05;;;;;;;18.99;57.88;98850.22;5134469;27;20015;-46
2023/08/05 00:03:29;;;;;;;3.65;2.15;;;;;;;19.08;57.68;98851.41;5135768;27;20072;-45
2023/08/05 00:05:55;;;;;;;4.18;1.88;;;;;;;19.00;57.51;98854.50;5135726;27;20078;-46
2023/08/05 00:08:21;;;;;;;7.28;2.28;;;;;;;18.81;57.70;98854.03;5135435;27;20132;-46
2023/08/05 00:10:47;;;;;;;10.60;2.05;;;;;;;18.61;58.22;98849.28;5135452;27;20027;-45
2023/08/05 00:13:13;;;;;;;9.75;2.50;;;;;;;18.38;58.79;98847.69;5135758;27;20026;-46
2023/08/05 00:15:39;;;;;;;6.60;2.25;;;;;;;18.34;59.32;98855.34;5134150;27;20489;-46
2023/08/05 00:18:05;;;;;;;7.07;2.22;;;;;;;18.31;59.56;98853.16;5135466;27;20392;-46
2023/08/05 00:20:31;;;;;;;10.25;2.90;;;;;;;18.33;59.71;98859.03;5134173;27;20131;-46
2023/08/05 00:22:57;;;;;;;10.07;2.40;;;;;;;18.45;59.56;98850.94;5135017;27;20058;-46
2023/08/05 00:25:22;;;;;;;6.97;2.33;;;;;;;18.52;59.73;98856.88;5133953;27;20055;-46
2023/08/05 00:27:48;;;;;;;2.72;1.50;;;;;;;18.76;59.25;98863.53;5135293;27;20031;-46
2023/08/05 00:30:14;;;;;;;4.13;2.38;;;;;;;18.49;58.72;98855.53;5133868;27;20088;-45
2023/08/05 00:32:39;;;;;;;7.38;2.22;;;;;;;18.03;59.85;98862.91;5133874;27;20401;-46
2023/08/05 00:35:06;;;;;;;7.43;3.17;;;;;;;17.77;61.27;98856.41;5135428;27;20235;-46
2023/08/05 00:37:33;;;;;;;6.70;3.30;;;;;;;17.98;61.78;98862.84;5135164;27;20110;-45
2023/08/05 00:39:59;;;;;;;7.97;2.70;;;;;;;18.38;61.36;98861.78;5135258;27;20031;-45
2023/08/05 00:42:28;;;;;;;9.57;3.25;;;;;;;18.62;60.35;98859.66;5135070;27;20034;-46
2023/08/05 00:44:57;;;;;;;9.20;4.10;;;;;;;18.64;59.90;98860.22;5133720;27;20347;-45
2023/08/05 00:47:23;;;;;;;7.10;2.80;;;;;;;18.69;59.86;98851.50;5134969;27;20106;-45
2023/08/05 00:49:54;;;;;;;10.63;2.60;;;;;;;18.75;59.42;98856.63;5133545;27;20019;-46
2023/08/05 00:52:22;;;;;;;19.25;3.03;;;;;;;18.90;59.61;98857.88;5133590;27;20027;-45
2023/08/05 00:54:48;;;;;;;6.90;2.30;;;;;;;19.18;58.97;98856.81;5134804;27;20450;-46
2023/08/05 00:57:14;;;;;;;5.65;1.83;;;;;;;19.07;58.21;98855.09;5134692;27;20019;-46
2023/08/05 00:59:40;;;;;;;4.78;1.70;;;;;;;18.86;58.32;98862.88;5133422;27;20050;-46
2023/08/05 01:02:06;;;;;;;4.35;2.50;;;;;;;18.57;58.64;98864.91;5133288;27;20167;-46
2023/08/05 01:04:33;;;;;;;7.88;2.40;;;;;;;18.51;59.91;98864.06;5133286;27;20054;-46
2023/08/05 01:06:59;;;;;;;4.00;2.35;;;;;;;18.73;59.69;98864.06;5134469;27;20023;-46
2023/08/05 01:09:25;;;;;;;5.72;2.10;;;;;;;18.86;59.98;98864.75;5132938;27;20122;-46
2023/08/05 01:11:51;;;;;;;3.45;1.52;;;;;;;19.06;58.94;98864.16;5133414;27;20024;-46
2023/08/05 01:14:17;;;;;;;3.63;1.65;;;;;;;19.22;58.93;98852.59;5134399;27;20034;-46
2023/08/05 01:16:43;;;;;;;6.20;1.85;;;;;;;19.41;58.09;98861.00;5134353;27;20023;-46
2023/08/05 01:19:23;;;;;;;12.18;9.07;;;;;;;19.34;57.02;98853.22;5134222;27;20481;-46
2023/08/05 01:22:26;;;;;;;3.67;2.17;;;;;;;19.00;57.22;98854.50;5134220;27;20076;-46
2023/08/05 01:25:06;;;;;;;11.82;8.00;;;;;;;18.66;58.63;98852.78;5134248;27;20015;-46
2023/08/05 01:27:34;;;;;;;3.75;2.25;;;;;;;18.48;59.07;98856.56;5134566;27;20080;-46
2023/08/05 01:30:00;;;;;;;13.38;3.22;;;;;;;18.40;59.80;98858.88;5132779;27;20023;-46
2023/08/05 01:32:27;;;;;;;3.20;1.73;;;;;;;18.49;59.33;98868.81;5134060;27;20098;-46
2023/08/05 01:34:53;;;;;;;6.65;2.22;;;;;;;18.41;59.87;98871.09;5133349;27;20366;-46
2023/08/05 01:37:19;;;;;;;3.05;1.63;;;;;;;18.59;59.91;98872.63;5132796;27;20042;-46
2023/08/05 01:39:45;;;;;;;5.13;1.65;;;;;;;18.93;59.22;98873.31;5132797;27;20027;-46
2023/08/05 01:42:11;;;;;;;3.92;1.70;;;;;;;18.87;57.83;98853.84;5132786;27;20100;-46
2023/08/05 01:44:37;;;;;;;11.07;2.38;;;;;;;18.62;59.19;98850.91;5132444;27;20027;-46
2023/08/05 01:47:02;;;;;;;8.77;3.10;;;;;;;18.73;59.36;98852.59;5133687;27;20370;-46
2023/08/05 01:49:28;;;;;;;9.23;2.80;;;;;;;18.66;59.22;98855.47;5133685;27;20023;-46
2023/08/05 01:51:54;;;;;;;4.68;2.22;;;;;;;18.71;59.20;98852.03;5133658;27;20026;-46
2023/08/05 01:54:19;;;;;;;6.25;2.83;;;;;;;18.47;59.11;98849.66;5133803;27;20034;-46
2023/08/05 01:56:45;;;;;;;8.88;2.80;;;;;;;18.22;59.41;98858.09;5132275;27;20034;-46
2023/08/05 01:59:11;;;;;;;23.50;17.88;;;;;;;18.07;61.00;98856.06;5133478;27;20027;-46
2023/08/05 02:01:41;;;;;;;10.00;3.63;;;;;;;18.13;60.82;98849.78;5132113;27;20045;-46
2023/08/05 02:04:06;;;;;;;9.23;2.67;;;;;;;17.90;60.46;98850.78;5133402;27;20442;-46
2023/08/05 02:06:32;;;;;;;3.00;2.00;;;;;;;17.92;61.64;98847.88;5133351;27;20023;-45
2023/08/05 02:08:58;;;;;;;3.88;2.55;;;;;;;18.16;61.20;98846.59;5131760;27;20122;-46
2023/08/05 02:11:23;;;;;;;4.57;2.22;;;;;;;18.08;60.89;98832.97;5133326;27;20027;-46
2023/08/05 02:13:49;;;;;;;5.47;2.53;;;;;;;18.02;60.79;98837.38;5133310;27;20419;-46
2023/08/05 02:16:14;;;;;;;9.95;2.88;;;;;;;18.13;61.16;98841.00;5131859;27;20023;-46
2023/08/05 02:18:40;;;;;;;10.73;2.20;;;;;;;18.32;60.61;98844.16;5133116;27;20019;-46
2023/08/05 02:21:06;;;;;;;9.00;2.20;;;;;;;18.45;60.54;98846.44;5133195;27;20054;-46
2023/08/05 02:23:31;;;;;;;11.88;2.60;;;;;;;18.65;60.39;98851.22;5131815;27;20393;-46
2023/08/05 02:25:57;;;;;;;11.55;2.88;;;;;;;19.08;59.59;98846.88;5133021;27;20031;-46
2023/08/05 02:28:22;;;;;;;2.95;1.77;;;;;;;19.28;58.50;98843.59;5133126;27;20023;-46
2023/08/05 02:30:48;;;;;;;4.32;1.92;;;;;;;19.23;57.79;98840.88;5132977;27;20016;-46
2023/08/05 02:33:14;;;;;;;4.85;2.13;;;;;;;19.18;57.71;98837.41;5133238;27;20623;-46
2023/08/05 02:35:39;;;;;;;6.32;1.83;;;;;;;19.02;57.53;98833.78;5132969;27;20055;-46
2023/08/05 02:38:05;;;;;;;3.45;1.60;;;;;;;18.86;58.31;98838.16;5132929;27;20480;-46
2023/08/05 02:40:34;;;;;;;7.22;2.58;;;;;;;18.75;58.40;98829.22;5131445;27;20034;-46
2023/08/05 02:43:00;;;;;;;7.28;2.30;;;;;;;18.81;58.87;98833.56;5132842;27;20012;-45
2023/08/05 02:45:25;;;;;;;4.72;2.38;;;;;;;18.98;58.54;98838.00;5132761;27;20020;-46
2023/08/05 02:47:51;;;;;;;6.70;2.20;;;;;;;19.03;58.13;98836.19;5132582;27;20023;-46
2023/08/05 02:50:16;;;;;;;13.88;2.85;;;;;;;19.05;57.98;98831.41;5132771;27;20031;-46
2023/08/05 02:52:42;;;;;;;7.47;2.40;;;;;;;19.16;57.96;98829.66;5131450;28;20034;-46
2023/08/05 02:55:08;;;;;;;8.95;2.88;;;;;;;19.22;57.78;98822.53;5131368;28;20114;-46
2023/08/05 02:57:33;;;;;;;8.40;2.47;;;;;;;19.22;57.70;98825.97;5132741;27;20047;-46
2023/08/05 02:59:59;;;;;;;11.30;2.90;;;;;;;19.19;57.49;98823.03;5131316;28;20031;-45
2023/08/05 03:02:25;;;;;;;6.20;2.53;;;;;;;19.12;57.67;98824.03;5132936;27;20110;-45
2023/08/05 03:04:51;;;;;;;11.45;2.30;;;;;;;19.09;57.82;98823.72;5114195;28;20126;-46
2023/08/05 03:07:16;;;;;;;12.07;3.03;;;;;;;19.08;57.83;98827.47;5132385;27;20102;-48
2023/08/05 03:09:42;;;;;;;12.00;2.50;;;;;;;19.09;57.69;98819.19;5131234;28;20034;-46
2023/08/05 03:12:08;;;;;;;11.65;2.00;;;;;;;19.04;57.57;98811.19;5131254;28;20058;-46
2023/08/05 03:14:34;;;;;;;412.67;376.50;;;;;;;19.00;57.88;98798.66;5132482;27;20114;-45
2023/08/05 03:17:00;;;;;;;35.17;31.20;;;;;;;19.07;57.94;98793.91;5132475;27;20025;-46
2023/08/05 03:19:25;;;;;;;6.90;3.17;;;;;;;19.09;57.53;98797.91;5131080;28;20043;-46
2023/08/05 03:21:51;;;;;;;6.03;2.42;;;;;;;19.01;57.62;98801.03;5132433;27;20059;-46
2023/08/05 03:24:17;;;;;;;7.43;1.80;;;;;;;18.92;57.97;98803.38;5132707;28;20054;-46
2023/08/05 03:26:43;;;;;;;5.30;1.75;;;;;;;18.98;58.10;98812.22;5132421;27;20047;-46
2023/08/05 03:29:08;;;;;;;12.93;2.70;;;;;;;19.15;57.85;98825.38;5132355;28;20086;-46
2023/08/05 03:31:34;;;;;;;3.13;1.75;;;;;;;19.00;57.23;98831.38;5132437;27;20015;-46
2023/08/05 03:34:00;;;;;;;7.10;2.10;;;;;;;18.64;58.34;98830.19;5132339;28;20022;-46
2023/08/05 03:36:25;;;;;;;6.30;2.00;;;;;;;18.45;58.43;98832.34;5132336;27;20378;-46
2023/08/05 03:38:51;;;;;;;7.05;1.90;;;;;;;18.28;59.42;98832.41;5132262;27;20023;-46
2023/08/05 03:41:17;;;;;;;6.32;1.85;;;;;;;18.17;59.54;98840.25;5132564;27;20445;-46
2023/08/05 03:43:43;;;;;;;8.77;2.30;;;;;;;18.15;59.93;98831.72;5132499;28;20102;-46
2023/08/05 03:46:08;;;;;;;8.45;2.25;;;;;;;18.15;59.72;98837.03;5130924;28;20511;-46
2023/08/05 03:48:34;;;;;;;4.63;1.90;;;;;;;18.02;60.40;98834.72;5130818;28;20445;-45
2023/08/05 03:51:00;;;;;;;6.95;2.10;;;;;;;17.88;60.68;98828.16;5132127;27;20098;-46
2023/08/05 03:53:26;;;;;;;8.35;2.03;;;;;;;17.78;61.21;98836.75;5132166;27;20019;-46
2023/08/05 03:55:51;;;;;;;7.00;2.25;;;;;;;17.69;61.37;98828.41;5132085;27;20160;-46
2023/08/05 03:58:19;;;;;;;3.65;1.70;;;;;;;17.72;61.59;98835.88;5131139;27;20034;-46
2023/08/05 04:00:45;;;;;;;5.15;2.20;;;;;;;17.77;61.61;98827.19;5135851;27;20023;-45
2023/08/05 04:03:11;;;;;;;3.15;1.73;;;;;;;17.78;61.61;98816.31;5134471;27;20164;-45
2023/08/05 04:05:37;;;;;;;10.55;3.85;;;;;;;17.91;62.02;98814.41;5135748;27;20101;-46
2023/08/05 04:08:03;;;;;;;6.05;2.17;;;;;;;18.20;61.84;98812.38;5135417;27;20120;-45
2023/08/05 04:10:30;;;;;;;9.10;2.55;;;;;;;18.60;61.12;98807.81;5135612;27;20015;-46
2023/08/05 04:12:57;;;;;;;8.00;2.20;;;;;;;18.91;59.87;98801.78;5135573;27;20023;-46
2023/08/05 04:15:25;;;;;;;6.80;2.28;;;;;;;19.04;59.10;98808.53;5134298;27;20130;-46
2023/08/05 04:17:59;;;;;;;12.18;2.17;;;;;;;19.12;58.77;98809.94;5135559;27;20561;-45
2023/08/05 04:20:25;;;;;;;4.45;2.70;;;;;;;19.13;58.11;98827.50;5135666;27;20033;-45
2023/08/05 04:22:51;;;;;;;4.18;2.28;;;;;;;18.80;58.50;98836.50;5134147;27;20098;-46
2023/08/05 04:25:16;;;;;;;4.38;2.05;;;;;;;18.54;58.85;98846.81;5135358;27;20042;-46
2023/08/05 04:27:42;;;;;;;7.65;1.90;;;;;;;18.36;59.17;98854.03;5135310;27;20050;-45
2023/08/05 04:30:08;;;;;;;6.88;2.20;;;;;;;18.12;60.03;98855.31;5116861;27;20113;-46
2023/08/05 04:32:34;;;;;;;8.23;2.15;;;;;;;18.03;60.38;98862.09;5133953;27;20039;-45
2023/08/05 04:35:00;;;;;;;9.82;2.58;;;;;;;18.00;60.74;98841.34;5135166;27;20064;-45
2023/08/05 04:37:27;;;;;;;7.18;1.95;;;;;;;18.05;60.92;98838.75;5133806;27;20035;-46
2023/08/05 04:39:53;;;;;;;13.13;3.15;;;;;;;18.04;60.63;98837.16;5135008;27;20026;-45
2023/08/05 04:42:19;;;;;;;7.40;1.88;;;;;;;18.00;60.90;98828.88;5135008;27;20023;-46
2023/08/05 04:44:45;;;;;;;8.30;2.10;;;;;;;17.97;60.92;98837.34;5135037;27;20120;-45
2023/08/05 04:47:11;;;;;;;11.98;2.72;;;;;;;17.89;61.06;98846.53;5133701;27;20140;-45
2023/08/05 04:49:41;;;;;;;5.10;2.70;;;;;;;17.95;61.61;98839.44;5133571;27;20131;-46
2023/08/05 04:52:07;;;;;;;12.73;2.35;;;;;;;18.16;61.39;98841.28;5134840;27;20034;-46
2023/08/05 04:54:46;;;;;;;7.95;2.80;;;;;;;18.69;61.22;98830.22;5133492;27;20030;-46
2023/08/05 04:57:12;;;;;;;3.33;1.90;;;;;;;19.85;57.00;98831.50;5135065;27;20079;-45
2023/08/05 04:59:38;;;;;;;6.90;2.42;;;;;;;20.46;54.76;98832.88;5134617;27;20022;-46
2023/08/05 05:02:04;;;;;;;9.23;1.92;;;;;;;21.18;53.02;98825.84;5134601;27;20039;-46
2023/08/05 05:04:30;;;;;;;15.90;2.65;;;;;;;21.98;50.80;98827.94;5134568;27;20388;-46
2023/08/05 05:06:55;;;;;;;19.60;2.50;;;;;;;22.66;48.81;98829.28;5134605;27;20055;-46
2023/08/05 05:09:21;;;;;;;8.73;2.40;;;;;;;22.85;46.95;98824.09;5134234;27;20054;-46
2023/08/05 05:11:47;;;;;;;9.18;2.40;;;;;;;22.88;46.79;98816.31;5133125;27;20666;-46
2023/08/05 05:14:13;;;;;;;19.90;2.72;;;;;;;22.79;47.37;98809.94;5133177;27;20030;-46
2023/08/05 05:16:38;;;;;;;19.77;2.67;;;;;;;23.01;46.92;98812.19;5133086;27;20085;-46
2023/08/05 05:19:04;;;;;;;7.95;1.83;;;;;;;23.43;45.78;98818.06;5134340;27;20038;-46
2023/08/05 05:21:30;;;;;;;9.38;2.20;;;;;;;23.91;44.80;98816.25;5132959;27;20019;-46
2023/08/05 05:23:56;;;;;;;8.65;2.22;;;;;;;24.09;43.88;98814.72;5134264;27;20485;-46
2023/08/05 05:26:22;;;;;;;7.78;1.92;;;;;;;24.32;43.97;98820.34;5132989;27;20054;-46
2023/08/05 05:28:48;;;;;;;4.30;1.80;;;;;;;24.88;42.68;98810.78;5134171;27;20031;-46
2023/08/05 05:31:13;;;;;;;7.47;1.95;;;;;;;25.42;41.82;98800.53;5134090;27;20064;-46
2023/08/05 05:33:39;;;;;;;19.73;2.42;;;;;;;25.80;40.47;98793.13;5132745;27;20613;-46
2023/08/05 05:36:05;;;;;;;18.17;2.20;;;;;;;25.91;39.56;98801.81;5134020;27;20019;-46
2023/08/05 05:38:31;;;;;;;10.10;1.77;;;;;;;26.05;39.26;98802.59;5133871;27;20027;-46
2023/08/05 05:40:57;;;;;;;4.55;1.70;;;;;;;26.47;38.88;98807.94;5115554;27;20112;-46
2023/08/05 05:43:23;;;;;;;7.78;1.90;;;;;;;26.79;38.10;98809.69;5133863;27;20058;-46
2023/08/05 05:45:52;;;;;;;6.43;1.67;;;;;;;27.12;37.29;98804.06;5132444;27;20046;-46
2023/08/05 05:48:18;;;;;;;5.28;1.85;;;;;;;27.64;36.16;98808.97;5134086;27;20515;-46
2023/08/05 05:50:44;;;;;;;5.70;1.38;;;;;;;27.98;35.70;98807.56;5115245;27;20031;-46
2023/08/05 05:53:13;;;;;;;4.68;1.58;;;;;;;28.40;35.01;98810.69;5133947;27;20031;-46
2023/08/05 05:55:45;;;;;;;2.58;1.33;;;;;;;28.79;34.24;98800.88;5133481;27;20023;-46
2023/08/05 05:58:11;;;;;;;6.65;1.63;;;;;;;29.03;33.57;98795.78;5132311;27;20053;-46
2023/08/05 06:00:39;;;;;;;2.05;1.42;;;;;;;29.33;33.41;98801.31;5133398;27;20034;-46
2023/08/05 06:03:06;;;;;;;5.68;1.50;;;;;;;29.41;33.08;98802.41;5133484;27;20029;-46
2023/08/05 06:05:31;;;;;;;5.97;1.65;;;;;;;29.52;32.76;98806.38;5132119;27;20024;-46
2023/08/05 06:07:57;;;;;;;7.75;1.67;;;;;;;29.54;32.70;98812.25;5131902;27;20095;-46
2023/08/05 06:10:23;;;;;;;5.18;1.73;;;;;;;29.94;32.19;98795.72;5133366;27;20063;-46
2023/08/05 06:12:49;;;;;;;6.07;1.77;;;;;;;30.13;31.44;98800.69;5133348;27;20051;-46
2023/08/05 06:15:15;;;;;;;8.30;1.80;;;;;;;30.14;31.73;98796.06;5133234;27;20076;-46
2023/08/05 06:17:41;;;;;;;11.13;1.67;;;;;;;30.27;31.47;98795.84;5131915;27;20023;-46
2023/08/05 06:20:07;;;;;;;6.43;1.77;;;;;;;30.57;30.92;98798.53;5133153;27;20042;-46
2023/08/05 06:22:33;;;;;;;5.75;1.58;;;;;;;30.98;30.81;98788.00;5131503;27;20546;-46
2023/08/05 06:24:58;;;;;;;2.22;1.35;;;;;;;31.20;29.83;98784.13;5133209;27;20031;-46
2023/08/05 06:27:24;;;;;;;9.80;5.78;;;;;;;31.24;29.75;98785.03;5133126;27;20048;-46
2023/08/05 06:29:50;;;;;;;4.93;1.50;;;;;;;31.12;30.13;98780.38;5131794;27;20504;-46
2023/08/05 06:32:15;;;;;;;5.30;2.40;;;;;;;31.15;29.79;98787.03;5131734;27;20023;-46
2023/08/05 06:34:41;;;;;;;6.75;2.10;;;;;;;31.51;29.81;98797.22;5131657;27;20099;-46
2023/08/05 06:37:06;;;;;;;17.48;2.30;;;;;;;31.69;29.54;98802.44;5132937;27;20024;-47
2023/08/05 06:39:33;;;;;;;6.13;1.50;;;;;;;31.97;28.56;98803.34;5133033;27;20054;-46
2023/08/05 06:42:00;;;;;;;9.38;2.40;;;;;;;31.98;29.21;98804.94;5133093;27;20038;-46
2023/08/05 06:44:25;;;;;;;6.18;1.60;;;;;;;32.33;28.35;98798.25;5131579;27;20126;-46
2023/08/05 06:46:52;;;;;;;7.78;1.70;;;;;;;32.63;27.62;98799.53;5132859;27;20536;-46
2023/08/05 06:49:17;;;;;;;2.63;1.45;;;;;;;32.93;27.33;98791.06;5132875;27;20027;-46
2023/08/05 06:51:44;;;;;;;11.50;2.25;;;;;;;33.27;26.96;98802.47;5132953;27;20050;-46
2023/08/05 06:54:11;;;;;;;2.65;1.27;;;;;;;33.46;26.48;98798.28;5132723;27;20027;-47
2023/08/05 06:56:37;;;;;;;2.42;1.30;;;;;;;33.40;26.94;98800.47;5132920;27;20034;-46
2023/08/05 06:59:03;;;;;;;8.38;1.65;;;;;;;33.43;26.82;98814.16;5131351;28;20392;-46
2023/08/05 07:01:28;;;;;;;11.15;2.30;;;;;;;33.34;27.01;98812.75;5132651;27;20012;-46
2023/08/05 07:03:54;;;;;;;4.45;1.55;;;;;;;33.34;27.00;98808.09;5132676;27;20023;-46
2023/08/05 07:06:19;;;;;;;4.03;1.80;;;;;;;33.57;26.35;98807.50;5132872;27;20373;-46
2023/08/05 07:08:45;;;;;;;1.80;1.20;;;;;;;33.63;26.81;98800.69;5132372;28;20504;-47
2023/08/05 07:11:11;;;;;;;4.53;1.50;;;;;;;33.25;26.38;98795.81;5131299;28;20454;-47
2023/08/05 07:13:36;;;;;;;4.40;1.60;;;;;;;32.93;27.05;98793.78;5132840;27;20115;-46
2023/08/05 07:16:03;;;;;;;3.25;1.50;;;;;;;32.56;27.53;98787.66;5132786;27;20495;-46
2023/08/05 07:18:29;;;;;;;6.88;1.33;;;;;;;32.30;27.72;98779.91;5132723;27;20023;-46
2023/08/05 07:20:55;;;;;;;1.63;1.08;;;;;;;32.11;28.06;98775.06;5131202;28;20069;-46
2023/08/05 07:23:21;;;;;;;3.83;1.30;;;;;;;31.84;27.97;98767.28;5132452;27;20485;-46
2023/08/05 07:25:47;;;;;;;3.88;1.20;;;;;;;31.82;28.21;98768.75;5132533;27;20042;-46
2023/08/05 07:28:13;;;;;;;6.18;1.55;;;;;;;31.62;28.85;98773.94;5132765;27;20023;-47
2023/08/05 07:30:39;;;;;;;9.55;2.40;;;;;;;31.39;28.83;98764.59;5132380;27;20061;-46
2023/08/05 07:33:07;;;;;;;11.23;2.17;;;;;;;31.46;28.75;98767.59;5132689;27;20380;-46
2023/08/05 07:35:33;;;;;;;4.65;1.70;;;;;;;31.00;29.10;98759.44;5136345;27;20023;-46
2023/08/05 07:38:04;;;;;;;6.70;1.33;;;;;;;31.14;29.30;98764.56;5136626;27;20065;-46
2023/08/05 07:40:31;;;;;;;4.20;1.40;;;;;;;32.03;28.01;98768.63;5136141;27;20031;-46
2023/08/05 07:42:58;;;;;;;3.67;1.55;;;;;;;33.12;27.22;98771.41;5136261;27;20019;-47
2023/08/05 07:45:25;;;;;;;4.75;1.40;;;;;;;33.19;26.42;98763.41;5136078;27;20031;-46
2023/08/05 07:47:51;;;;;;;4.10;1.58;;;;;;;33.13;26.13;98764.81;5136136;27;20489;-46
2023/08/05 07:50:21;;;;;;;4.22;1.23;;;;;;;32.78;26.39;98778.19;5136015;27;20146;-46
2023/08/05 07:52:48;;;;;;;6.55;1.60;;;;;;;32.99;26.62;98772.56;5135127;27;20388;-46
2023/08/05 07:55:14;;;;;;;11.38;2.50;;;;;;;32.08;27.15;98776.56;5134676;27;20033;-46
2023/08/05 07:57:40;;;;;;;13.82;1.83;;;;;;;31.45;28.67;98783.09;5134646;27;20032;-46
2023/08/05 08:00:09;;;;;;;14.73;2.30;;;;;;;31.67;28.16;98785.69;5135774;27;20031;-46
2023/08/05 08:02:35;;;;;;;2.10;1.38;;;;;;;32.38;27.47;98765.41;5135889;27;20015;-46
2023/08/05 08:05:04;;;;;;;5.03;1.80;;;;;;;32.95;26.75;98763.53;5136080;27;20069;-46
2023/08/05 08:07:30;;;;;;;12.55;1.83;;;;;;;33.06;26.86;98759.16;5135345;27;20015;-47
2023/08/05 08:09:55;;;;;;;5.18;1.90;;;;;;;33.31;26.49;98764.50;5134415;27;20027;-47
2023/08/05 08:12:23;;;;;;;12.18;2.05;;;;;;;33.70;26.18;98761.97;5134740;27;20436;-46
2023/08/05 08:14:49;;;;;;;3.58;1.30;;;;;;;34.10;25.87;98760.91;5135719;27;20082;-47
2023/08/05 08:17:16;;;;;;;3.38;1.60;;;;;;;33.94;25.72;98760.94;5135638;27;20027;-47
2023/08/05 08:19:42;;;;;;;2.58;1.20;;;;;;;34.09;25.83;98762.03;5135776;27;20389;-47
2023/08/05 08:22:08;;;;;;;7.13;1.63;;;;;;;34.18;26.09;98755.28;5135519;27;20080;-47
2023/08/05 08:24:34;;;;;;;3.75;1.60;;;;;;;34.25;25.21;98748.41;5135359;27;20031;-47
2023/08/05 08:27:00;;;;;;;6.10;1.83;;;;;;;34.14;25.42;98748.19;5135354;27;20020;-47
2023/08/05 08:29:26;;;;;;;6.90;1.77;;;;;;;34.37;25.49;98754.53;5135397;27;20031;-47
2023/08/05 08:31:51;;;;;;;2.50;1.60;;;;;;;35.07;24.75;98744.56;5135340;27;20404;-47
2023/08/05 08:34:17;;;;;;;4.57;1.80;;;;;;;35.89;23.68;98738.91;5135207;27;20019;-46
2023/08/05 08:36:43;;;;;;;11.55;2.20;;;;;;;36.39;22.76;98734.94;5135246;27;20034;-47
2023/08/05 08:39:08;;;;;;;2.88;1.33;;;;;;;36.95;22.37;98737.91;5133762;27;20019;-46
2023/08/05 08:41:43;;;;;;;4.90;1.60;;;;;;;37.12;22.36;98744.72;5135088;27;20469;-46
2023/08/05 08:44:10;;;;;;;7.03;2.10;;;;;;;36.53;22.87;98734.31;5134969;27;20396;-47
2023/08/05 08:46:37;;;;;;;7.78;1.50;;;;;;;36.97;22.14;98730.88;5134955;27;20401;-47
2023/08/05 08:49:03;;;;;;;20.98;2.53;;;;;;;36.29;22.51;98732.84;5134928;27;20052;-46
2023/08/05 08:51:31;;;;;;;3.17;1.40;;;;;;;36.08;23.00;98735.25;5134896;27;20023;-47
2023/08/05 08:53:57;;;;;;;4.70;1.45;;;;;;;35.20;24.18;98735.09;5134901;27;20026;-47
2023/08/05 08:56:22;;;;;;;5.82;1.70;;;;;;;36.25;22.82;98728.50;5133582;27;20431;-47
2023/08/05 08:58:48;;;;;;;5.05;1.83;;;;;;;36.22;23.16;98727.28;5133395;27;20019;-47
2023/08/05 09:01:17;;;;;;;4.18;1.70;;;;;;;37.10;22.04;98723.19;5134715;27;20400;-47
2023/08/05 09:03:48;;;;;;;2.42;1.20;;;;;;;38.06;20.97;98721.59;5134884;27;20097;-47
2023/08/05 09:06:14;;;;;;;8.25;1.65;;;;;;;38.75;20.52;98723.41;5133697;27;20073;-48
2023/08/05 09:08:39;;;;;;;7.68;1.10;;;;;;;39.20;19.83;98712.91;5134365;27;20504;-47
2023/08/05 09:11:05;;;;;;;8.55;1.80;;;;;;;39.76;19.27;98707.75;5133197;27;20420;-47
2023/08/05 09:13:31;;;;;;;6.75;3.25;;;;;;;39.09;19.56;98699.16;5134506;27;20030;-47
2023/08/05 09:15:57;;;;;;;7.70;1.77;;;;;;;38.36;19.86;98699.38;5133056;27;20080;-47
2023/08/05 09:18:23;;;;;;;2.63;1.08;;;;;;;38.85;19.16;98697.16;5134667;27;20023;-48
2023/08/05 09:20:50;;;;;;;5.97;1.40;;;;;;;37.39;20.63;98685.13;5134273;27;20049;-47
2023/08/05 09:23:16;;;;;;;24.30;3.00;;;;;;;36.83;20.76;98678.78;5134538;27;20080;-47
2023/08/05 09:25:48;;;;;;;42.78;4.57;;;;;;;36.22;21.47;98677.31;5132935;27;20027;-46
2023/08/05 09:28:29;;;;;;;12.75;2.38;;;;;;;37.15;20.88;98670.88;5134476;27;20412;-47
2023/08/05 09:31:16;;;;;;;5.05;1.42;;;;;;;38.08;20.14;98678.13;5134218;27;20106;-47
2023/08/05 09:33:43;;;;;;;6.97;1.48;;;;;;;38.29;20.32;98674.69;5132822;27;20488;-47
2023/08/05 09:36:12;;;;;;;30.45;3.30;;;;;;;38.39;20.02;98676.66;5132702;27;20034;-47
2023/08/05 09:38:39;;;;;;;34.70;3.78;;;;;;;38.96;19.54;98676.78;5132553;27;20038;-47
2023/08/05 09:41:06;;;;;;;15.73;2.30;;;;;;;39.57;18.60;98667.00;5133914;27;20060;-47
2023/08/05 09:43:34;;;;;;;8.25;1.60;;;;;;;39.79;18.06;98668.50;5134226;27;20027;-47
2023/08/05 09:46:06;;;;;;;8.15;1.95;;;;;;;39.03;19.10;98658.78;5133767;27;20019;-47
2023/08/05 09:48:42;;;;;;;5.18;1.33;;;;;;;38.49;19.76;98659.44;5133886;27;20109;-47
2023/08/05 09:51:13;;;;;;;9.65;1.40;;;;;;;38.65;19.44;98666.56;5133749;27;20441;-48
2023/08/05 09:53:40;;;;;;;25.83;4.50;;;;;;;38.31;18.89;98655.88;5134001;27;20396;-47
2023/08/05 09:56:06;;;;;;;13.43;1.30;;;;;;;37.97;19.25;98658.84;5131536;27;20023;-47
2023/08/05 09:58:37;;;;;;;17.45;2.05;;;;;;;37.57;19.75;98666.88;5132256;27;20030;-47
2023/08/05 10:01:07;;;;;;;13.18;1.30;;;;;;;36.23;20.92;98657.81;5133552;27;20038;-47
2023/08/05 10:03:39;;;;;;;12.18;2.20;;;;;;;34.64;22.78;98648.34;5133779;27;20484;-46
2023/08/05 10:06:07;;;;;;;8.07;1.77;;;;;;;34.21;23.01;98640.16;5133548;27;20511;-47
2023/08/05 10:08:35;;;;;;;7.95;1.20;;;;;;;35.14;22.35;98646.50;5133157;27;20035;-47
2023/08/05 10:11:01;;;;;;;15.52;2.00;;;;;;;36.48;21.13;98638.16;5133362;27;20492;-47
2023/08/05 10:13:29;;;;;;;8.27;2.08;;;;;;;35.81;21.64;98639.72;5132026;27;20027;-47
2023/08/05 10:15:58;;;;;;;6.57;1.45;;;;;;;34.77;22.83;98638.91;5133384;27;20019;-46
2023/08/05 10:18:25;;;;;;;7.13;1.58;;;;;;;33.85;23.83;98638.63;5133307;27;20045;-46
2023/08/05 10:20:52;;;;;;;7.22;1.50;;;;;;;32.95;23.77;98635.75;5133426;27;20401;-46
2023/08/05 10:23:18;;;;;;;6.85;1.65;;;;;;;31.65;25.50;98643.03;5114855;27;20031;-46
2023/08/05 10:25:48;;;;;;;6.75;1.13;;;;;;;30.51;26.97;98639.28;5133156;27;20433;-46
2023/08/05 10:28:23;;;;;;;4.40;2.55;;;;;;;31.64;26.84;98632.50;5133090;27;20033;-46
2023/08/05 10:30:49;;;;;;;5.68;3.70;;;;;;;33.69;23.86;98638.69;5133135;27;20031;-46
2023/08/05 10:33:18;;;;;;;5.38;1.73;;;;;;;35.13;22.27;98623.09;5131817;27;20027;-47
2023/08/05 10:35:44;;;;;;;9.27;1.50;;;;;;;36.11;21.44;98622.53;5132983;27;20023;-46
2023/08/05 10:38:15;;;;;;;11.57;2.17;;;;;;;35.52;21.53;98613.97;5132975;27;20023;-47
2023/08/05 10:40:49;;;;;;;6.10;1.30;;;;;;;35.09;22.22;98614.06;5132836;27;20064;-46
2023/08/05 10:43:31;;;;;;;5.82;1.20;;;;;;;36.33;21.59;98615.38;5131656;27;20051;-47
2023/08/05 10:45:58;;;;;;;5.80;1.58;;;;;;;36.12;20.53;98618.63;5133201;27;20479;-46
2023/08/05 10:48:34;;;;;;;7.55;1.58;;;;;;;34.64;21.73;98615.66;5132902;27;20034;-46
2023/08/05 10:51:06;;;;;;;10.20;4.50;;;;;;;33.38;23.30;98617.72;5132801;27;20019;-47
2023/08/05 10:53:32;;;;;;;4.38;1.63;;;;;;;32.16;24.53;98614.66;5132896;27;20037;-46
2023/08/05 10:55:58;;;;;;;4.47;1.20;;;;;;;30.88;26.15;98625.78;5132699;27;20019;-46
2023/08/05 10:58:27;;;;;;;2.90;1.20;;;;;;;31.39;26.66;98618.16;5132733;27;20119;-46
2023/08/05 11:00:58;;;;;;;1.92;1.08;;;;;;;33.25;24.66;98616.28;5132655;27;20019;-47
2023/08/05 11:03:32;;;;;;;3.75;1.30;;;;;;;34.21;22.45;98602.03;5132737;27;20039;-46
2023/08/05 11:06:05;;;;;;;2.85;1.20;;;;;;;33.36;23.21;98598.25;5132738;27;20092;-46
2023/08/05 11:08:32;;;;;;;9.10;1.50;;;;;;;33.90;22.93;98577.66;5135003;27;20103;-47
2023/08/05 11:11:05;;;;;;;5.95;1.08;;;;;;;35.26;22.05;98573.81;5135936;27;20027;-47
2023/08/05 11:13:42;;;;;;;2.23;1.23;;;;;;;35.51;20.78;98571.44;5136913;27;20392;-46
2023/08/05 11:16:13;;;;;;;1.17;1.08;;;;;;;34.06;21.57;98572.91;5136873;27;20489;-46
2023/08/05 11:18:45;;;;;;;3.85;1.33;;;;;;;33.48;22.03;98576.38;5136777;27;20480;-47
2023/08/05 11:21:17;;;;;;;5.85;1.20;;;;;;;34.03;22.04;98563.53;5136682;27;20063;-46
2023/08/05 11:23:45;;;;;;;15.15;2.67;;;;;;;35.54;21.02;98555.09;5136789;27;20088;-47
2023/08/05 11:26:12;;;;;;;11.75;4.22;;;;;;;36.14;20.09;98553.44;5136802;27;20075;-46
2023/08/05 11:28:46;;;;;;;4.05;1.40;;;;;;;36.45;19.37;98554.19;5136591;27;20029;-46
2023/08/05 11:31:25;;;;;;;7.30;5.97;;;;;;;37.10;18.95;98552.75;5136504;27;20048;-47